Time;durP1;ratioP1;P1;durP2;ratioP2;P2;SDS_P1;SDS_P2;PMS_P1;PMS_P2;Temp;Humidity;BMP_temperature;BMP_pressure;BME280_temperature;BME280_humidity;BME280_pressure;Samples;Min_cycle;Max_cycle;Signal;HPM_P1;HPM_P2
2023/03/26 00:00:48;;;;;;;25.50;4.27;;;11.30;99.90;;;;;;7281444;19;20188;-74
2023/03/26 00:03:16;;;;;;;29.20;5.07;;;11.20;99.90;;;;;;7282076;19;20291;-75
2023/03/26 00:05:45;;;;;;;23.27;4.00;;;11.30;99.90;;;;;;7281130;19;20332;-75
2023/03/26 00:08:11;;;;;;;28.00;4.07;;;11.30;99.90;;;;;;7278981;19;20226;-75
2023/03/26 00:10:38;;;;;;;27.67;4.57;;;11.30;99.90;;;;;;7280885;19;20191;-74
2023/03/26 00:13:05;;;;;;;23.23;3.83;;;11.10;99.90;;;;;;7279036;19;20209;-74
2023/03/26 00:15:32;;;;;;;26.87;4.30;;;11.00;99.90;;;;;;7280121;19;20212;-75
2023/03/26 00:17:59;;;;;;;25.17;4.27;;;10.80;99.90;;;;;;7281396;19;20227;-74
2023/03/26 00:20:26;;;;;;;27.23;4.10;;;10.70;99.90;;;;;;7279767;19;20253;-75
2023/03/26 00:22:53;;;;;;;23.57;4.00;;;10.70;99.90;;;;;;7281013;19;20177;-74
2023/03/26 00:25:21;;;;;;;25.37;3.77;;;10.70;99.90;;;;;;7303081;19;20185;-75
2023/03/26 00:27:48;;;;;;;27.03;4.77;;;10.70;99.90;;;;;;7281154;19;20215;-75
2023/03/26 00:30:15;;;;;;;25.10;3.90;;;10.90;99.90;;;;;;7281050;19;20218;-74
2023/03/26 00:32:41;;;;;;;26.20;4.60;;;11.00;99.90;;;;;;7280213;19;20325;-74
2023/03/26 00:35:07;;;;;;;26.50;4.67;;;10.90;99.90;;;;;;7280124;19;20267;-74
2023/03/26 00:37:33;;;;;;;23.60;4.73;;;10.60;99.90;;;;;;7279264;19;20516;-74
2023/03/26 00:40:08;;;;;;;29.47;4.43;;;10.60;99.90;;;;;;7285631;19;20199;-75
2023/03/26 00:42:34;;;;;;;21.27;3.90;;;10.60;99.90;;;;;;7287329;19;20192;-74
2023/03/26 00:45:00;;;;;;;26.27;3.93;;;10.40;99.90;;;;;;7286889;19;20703;-74
2023/03/26 00:47:27;;;;;;;23.87;4.57;;;10.30;99.90;;;;;;7286086;19;20216;-75
2023/03/26 00:49:54;;;;;;;31.27;5.27;;;10.20;99.90;;;;;;7286305;19;20190;-74
2023/03/26 00:52:20;;;;;;;24.93;4.00;;;10.40;99.90;;;;;;7305950;19;20686;-75
2023/03/26 00:54:50;;;;;;;21.73;4.47;;;10.50;99.90;;;;;;7301228;19;20562;-75
2023/03/26 00:57:16;;;;;;;23.83;4.67;;;10.50;99.90;;;;;;7286144;19;20656;-75
2023/03/26 00:59:41;;;;;;;25.07;3.53;;;10.60;99.90;;;;;;7285806;19;20182;-75
2023/03/26 01:02:15;;;;;;;26.40;3.93;;;10.60;99.90;;;;;;7286499;19;20195;-74
2023/03/26 01:04:45;;;;;;;21.33;3.73;;;10.70;99.90;;;;;;7286763;19;20195;-74
2023/03/26 01:07:13;;;;;;;21.23;3.43;;;10.70;99.90;;;;;;7285310;19;20660;-75
2023/03/26 01:09:44;;;;;;;17.97;2.90;;;10.80;99.90;;;;;;7285453;19;20181;-75
2023/03/26 01:12:17;;;;;;;17.17;3.00;;;10.80;99.90;;;;;;7286225;19;20203;-74
2023/03/26 01:14:45;;;;;;;22.50;3.37;;;10.70;99.90;;;;;;7284356;19;20184;-74
2023/03/26 01:17:12;;;;;;;20.70;3.30;;;10.50;99.90;;;;;;7286553;19;20185;-74
2023/03/26 01:20:12;;;;;;;15.90;3.13;;;10.40;99.90;;;;;;7286211;19;20184;-74
2023/03/26 01:22:44;;;;;;;22.67;3.60;;;10.40;99.90;;;;;;7183158;19;2004640;-74
2023/03/26 01:25:10;;;;;;;23.13;3.53;;;10.30;99.90;;;;;;7284731;19;20187;-73
2023/03/26 01:27:54;;;;;;;17.37;3.53;;;10.40;99.90;;;;;;7285071;19;20192;-74
2023/03/26 01:30:41;;;;;;;19.03;4.47;;;10.40;99.90;;;;;;7284813;19;20256;-74
2023/03/26 01:33:46;;;;;;;23.70;3.97;;;10.30;99.90;;;;;;7183238;19;2004594;-74
2023/03/26 01:36:54;;;;;;;22.47;4.53;;;10.30;99.90;;;;;;7182949;19;2004538;-74
2023/03/26 01:39:41;;;;;;;21.23;4.20;;;10.40;99.90;;;;;;7181582;19;2006329;-74
2023/03/26 01:42:14;;;;;;;24.97;4.90;;;10.20;99.90;;;;;;7285754;19;20196;-73
2023/03/26 01:44:39;;;;;;;21.00;4.13;;;10.20;99.90;;;;;;7285939;19;20188;-75
2023/03/26 01:47:07;;;;;;;21.13;4.40;;;10.30;99.90;;;;;;7284304;19;20193;-75
2023/03/26 01:49:33;;;;;;;25.47;4.80;;;10.00;99.90;;;;;;7283646;19;20294;-75
2023/03/26 01:51:58;;;;;;;22.40;4.50;;;10.10;99.90;;;;;;7285800;19;20188;-74
2023/03/26 01:54:30;;;;;;;19.60;4.87;;;10.10;99.90;;;;;;7284505;19;20788;-75
2023/03/26 01:57:01;;;;;;;22.33;4.30;;;10.10;99.90;;;;;;7286697;19;20181;-75
2023/03/26 01:59:57;;;;;;;22.20;3.63;;;10.10;99.90;;;;;;7284436;19;21139;-75
2023/03/26 02:02:37;;;;;;;18.93;3.73;;;10.10;99.90;;;;;;7262586;19;20685;-74
2023/03/26 02:05:09;;;;;;;18.80;3.83;;;10.10;99.90;;;;;;7283218;19;20181;-74
2023/03/26 02:07:49;;;;;;;24.93;4.27;;;10.00;99.90;;;;;;7282324;19;20731;-75
2023/03/26 02:10:21;;;;;;;18.63;3.40;;;10.00;99.90;;;;;;7285565;19;20653;-75
2023/03/26 02:12:47;;;;;;;21.93;4.60;;;10.00;99.90;;;;;;7300292;19;20197;-76
2023/03/26 02:15:13;;;;;;;26.67;4.03;;;10.00;99.90;;;;;;7292967;19;20191;-75
2023/03/26 02:17:39;;;;;;;21.83;4.10;;;10.00;99.90;;;;;;7284878;19;20694;-75
2023/03/26 02:20:13;;;;;;;21.93;3.67;;;10.00;99.90;;;;;;7283391;19;20192;-75
2023/03/26 02:22:44;;;;;;;17.67;3.70;;;10.00;99.90;;;;;;7283086;19;20192;-74
2023/03/26 02:25:18;;;;;;;23.70;3.77;;;10.00;99.90;;;;;;7284709;19;21762;-74
2023/03/26 02:27:46;;;;;;;20.27;4.03;;;10.10;99.90;;;;;;7282769;19;20750;-75
2023/03/26 02:30:17;;;;;;;19.60;3.63;;;10.10;99.90;;;;;;7281682;19;20300;-75
2023/03/26 02:32:46;;;;;;;18.77;3.30;;;10.10;99.90;;;;;;7283053;19;20195;-74
2023/03/26 02:35:12;;;;;;;20.03;3.63;;;10.00;99.90;;;;;;7283159;19;20194;-75
2023/03/26 02:37:38;;;;;;;21.27;3.30;;;9.90;99.90;;;;;;7283649;19;20263;-75
2023/03/26 02:40:13;;;;;;;26.87;3.23;;;10.00;99.90;;;;;;7282822;19;20195;-75
2023/03/26 02:42:42;;;;;;;18.40;3.30;;;10.10;99.90;;;;;;7282361;19;20259;-75
2023/03/26 02:45:08;;;;;;;20.30;3.47;;;10.10;99.90;;;;;;7282880;19;20200;-74
2023/03/26 02:48:02;;;;;;;19.23;3.30;;;10.10;99.90;;;;;;7180487;19;2004788;-74
2023/03/26 02:50:48;;;;;;;19.87;3.50;;;10.20;99.90;;;;;;7283487;19;20195;-75
2023/03/26 02:53:36;;;;;;;18.17;3.10;;;10.20;99.90;;;;;;7180022;19;2004595;-75
2023/03/26 02:56:20;;;;;;;23.10;3.17;;;10.10;99.90;;;;;;7284470;19;20199;-75
2023/03/26 02:59:00;;;;;;;14.10;3.03;;;10.10;99.90;;;;;;7179960;19;2004588;-75
2023/03/26 03:01:29;;;;;;;22.97;3.03;;;10.20;99.90;;;;;;7281279;19;20199;-75
2023/03/26 03:03:55;;;;;;;16.13;3.33;;;10.20;99.90;;;;;;7283301;19;20209;-75
2023/03/26 03:06:33;;;;;;;18.60;4.07;;;10.30;99.90;;;;;;7281931;19;20256;-74
2023/03/26 03:09:01;;;;;;;17.10;3.20;;;10.30;99.90;;;;;;7281171;19;20181;-74
2023/03/26 03:11:37;;;;;;;14.97;3.33;;;10.30;99.90;;;;;;7282514;19;20184;-75
2023/03/26 03:14:04;;;;;;;18.93;3.00;;;10.30;99.90;;;;;;7283080;19;20191;-74
2023/03/26 03:16:31;;;;;;;17.97;2.90;;;10.40;99.90;;;;;;7281547;19;20184;-75
2023/03/26 03:19:12;;;;;;;14.37;2.90;;;10.40;99.90;;;;;;7281415;19;20184;-75
2023/03/26 03:21:39;;;;;;;21.20;3.97;;;10.40;99.90;;;;;;7282361;19;20195;-75
2023/03/26 03:24:06;;;;;;;20.53;3.53;;;10.40;99.90;;;;;;7282772;19;20244;-75
2023/03/26 03:26:36;;;;;;;18.37;3.03;;;10.40;99.90;;;;;;7279231;19;20191;-75
2023/03/26 03:29:13;;;;;;;20.73;3.07;;;10.50;99.90;;;;;;7281636;19;20216;-75
2023/03/26 03:31:40;;;;;;;18.47;3.63;;;10.50;99.90;;;;;;7281530;19;20181;-75
2023/03/26 03:34:13;;;;;;;19.40;3.30;;;10.50;99.90;;;;;;7281113;19;20212;-75
2023/03/26 03:36:47;;;;;;;20.70;3.23;;;10.40;99.90;;;;;;7281908;19;20180;-75
2023/03/26 03:39:26;;;;;;;21.00;2.87;;;10.50;99.90;;;;;;7179056;19;2004481;-75
2023/03/26 03:41:52;;;;;;;16.30;3.43;;;10.40;99.90;;;;;;7285972;19;20188;-74
2023/03/26 03:44:18;;;;;;;17.30;2.67;;;10.30;99.90;;;;;;7303123;19;20204;-75
2023/03/26 03:46:47;;;;;;;20.10;3.17;;;10.30;99.90;;;;;;7279059;19;20177;-75
2023/03/26 03:49:14;;;;;;;16.93;2.83;;;10.20;99.90;;;;;;7281026;19;20200;-75
2023/03/26 03:51:41;;;;;;;20.43;3.10;;;10.30;99.90;;;;;;7281409;19;20195;-75
2023/03/26 03:54:19;;;;;;;25.20;4.23;;;10.30;99.90;;;;;;7280799;19;20595;-75
2023/03/26 03:56:46;;;;;;;25.20;3.23;;;10.30;99.90;;;;;;7282562;19;20196;-75
2023/03/26 03:59:30;;;;;;;15.80;2.57;;;10.30;99.90;;;;;;7177767;19;2004560;-75
2023/03/26 04:01:56;;;;;;;18.33;2.93;;;10.30;99.90;;;;;;7279098;19;20189;-75
2023/03/26 04:04:31;;;;;;;20.33;3.07;;;10.20;99.90;;;;;;7281349;19;20197;-75
2023/03/26 04:07:03;;;;;;;22.63;3.07;;;10.30;99.90;;;;;;7279218;19;20200;-75
2023/03/26 04:09:50;;;;;;;21.70;3.73;;;10.30;99.90;;;;;;7281241;19;20192;-74
2023/03/26 04:12:17;;;;;;;18.50;3.20;;;10.40;99.90;;;;;;7277011;19;20297;-74
2023/03/26 04:14:55;;;;;;;23.97;3.40;;;10.40;99.90;;;;;;7265418;19;20522;-74
2023/03/26 04:17:21;;;;;;;23.83;3.80;;;10.40;99.90;;;;;;7307051;19;20197;-74
2023/03/26 04:19:49;;;;;;;19.77;2.80;;;10.50;99.90;;;;;;7304301;19;20192;-75
2023/03/26 04:22:20;;;;;;;21.20;3.00;;;10.50;99.90;;;;;;7288119;19;20239;-75
2023/03/26 04:24:56;;;;;;;14.93;2.40;;;10.40;99.90;;;;;;7183336;19;2004940;-74
2023/03/26 04:27:34;;;;;;;15.13;2.47;;;10.30;99.90;;;;;;7286520;19;20269;-75
2023/03/26 04:30:15;;;;;;;14.63;2.47;;;10.30;99.90;;;;;;7288132;19;20197;-74
2023/03/26 04:32:41;;;;;;;18.23;2.50;;;10.30;99.90;;;;;;7287303;19;20190;-75
2023/03/26 04:35:12;;;;;;;15.40;2.50;;;10.40;99.90;;;;;;7285967;19;20223;-75
2023/03/26 04:37:43;;;;;;;13.33;2.20;;;10.50;99.90;;;;;;7286972;19;20181;-75
2023/03/26 04:40:29;;;;;;;15.23;2.83;;;10.40;99.90;;;;;;7184175;19;2004532;-75
2023/03/26 04:43:15;;;;;;;19.67;2.77;;;10.30;99.90;;;;;;7287294;19;20199;-75
2023/03/26 04:46:02;;;;;;;16.53;2.43;;;10.30;99.90;;;;;;7185653;19;2004611;-74
2023/03/26 04:48:29;;;;;;;15.37;2.30;;;10.40;99.90;;;;;;7286022;19;20196;-75
2023/03/26 04:50:56;;;;;;;13.20;2.20;;;10.30;99.90;;;;;;7286908;19;20193;-75
2023/03/26 04:53:23;;;;;;;15.33;2.37;;;10.30;99.90;;;;;;7296697;19;20193;-75
2023/03/26 04:55:57;;;;;;;21.33;2.73;;;10.30;99.90;;;;;;7308723;19;20302;-75
2023/03/26 04:58:46;;;;;;;11.63;2.00;;;10.40;99.90;;;;;;7183897;19;2004732;-75
2023/03/26 05:01:15;;;;;;;12.53;2.13;;;10.40;99.90;;;;;;7286459;19;20229;-75
2023/03/26 05:03:44;;;;;;;14.37;2.03;;;10.40;99.90;;;;;;7285161;19;20219;-75
2023/03/26 05:06:12;;;;;;;12.00;2.03;;;10.40;99.90;;;;;;7284676;19;20254;-75
2023/03/26 05:08:38;;;;;;;15.07;2.10;;;10.40;99.90;;;;;;7286262;19;20192;-75
2023/03/26 05:11:10;;;;;;;8.57;1.60;;;10.40;99.90;;;;;;7285658;19;20192;-74
2023/03/26 05:13:36;;;;;;;13.73;1.80;;;10.30;99.90;;;;;;7285868;19;20205;-75
2023/03/26 05:16:07;;;;;;;12.50;1.67;;;10.30;99.90;;;;;;7286620;19;20192;-75
2023/03/26 05:18:54;;;;;;;13.00;2.00;;;10.20;99.90;;;;;;7263677;19;20288;-75
2023/03/26 05:21:21;;;;;;;12.93;2.00;;;10.10;99.90;;;;;;7307862;19;20192;-75
2023/03/26 05:23:47;;;;;;;14.80;2.13;;;10.20;99.90;;;;;;7285539;19;20279;-75
2023/03/26 05:26:18;;;;;;;15.73;2.50;;;10.20;99.90;;;;;;7286212;19;20200;-75
2023/03/26 05:28:44;;;;;;;16.30;2.60;;;10.10;99.90;;;;;;7284776;19;20570;-75
2023/03/26 05:31:36;;;;;;;15.30;2.90;;;10.00;99.90;;;;;;7183483;19;2004558;-75
2023/03/26 05:34:03;;;;;;;13.50;1.80;;;9.90;99.90;;;;;;7285007;19;20659;-75
2023/03/26 05:36:29;;;;;;;12.43;2.17;;;9.70;99.90;;;;;;7285346;19;20194;-74
2023/03/26 05:39:17;;;;;;;16.87;2.23;;;9.60;99.90;;;;;;7285559;19;20200;-75
2023/03/26 05:41:58;;;;;;;12.17;2.00;;;9.40;99.90;;;;;;7182767;19;2004653;-75
2023/03/26 05:44:34;;;;;;;13.03;1.87;;;9.40;99.90;;;;;;7284090;19;20949;-75
2023/03/26 05:47:04;;;;;;;13.87;2.10;;;9.60;99.90;;;;;;7285400;19;20192;-75
2023/03/26 05:49:30;;;;;;;12.80;1.90;;;9.60;99.90;;;;;;7283775;19;20611;-75
2023/03/26 05:51:56;;;;;;;14.57;2.10;;;9.50;99.90;;;;;;7284929;19;20193;-75
2023/03/26 05:54:35;;;;;;;12.37;1.93;;;9.40;99.90;;;;;;7284630;19;20199;-75
2023/03/26 05:57:21;;;;;;;11.10;1.80;;;9.40;99.90;;;;;;7285732;19;20584;-75
2023/03/26 06:00:08;;;;;;;9.87;1.93;;;9.50;99.90;;;;;;7181861;19;2004615;-75
2023/03/26 06:02:43;;;;;;;15.63;2.33;;;9.50;99.90;;;;;;7285430;19;20303;-75
2023/03/26 06:05:47;;;;;;;14.17;1.87;;;9.50;99.90;;;;;;7181729;19;2004543;-76
2023/03/26 06:08:20;;;;;;;10.40;1.73;;;9.30;99.90;;;;;;7284165;19;20198;-75
2023/03/26 06:10:56;;;;;;;9.13;1.30;;;9.30;99.90;;;;;;7284428;19;20198;-75
2023/03/26 06:13:23;;;;;;;9.13;1.83;;;9.20;99.90;;;;;;7264594;19;20204;-75
2023/03/26 06:15:50;;;;;;;8.73;1.70;;;9.30;99.90;;;;;;7306171;19;20187;-76
2023/03/26 06:18:30;;;;;;;7.83;1.47;;;9.20;99.90;;;;;;7182560;19;2005048;-76
2023/03/26 06:21:18;;;;;;;8.67;1.73;;;9.20;99.90;;;;;;7286129;19;20241;-76
2023/03/26 06:23:50;;;;;;;10.37;1.50;;;9.20;99.90;;;;;;7285309;19;20664;-76
2023/03/26 06:26:34;;;;;;;9.93;1.30;;;9.30;99.90;;;;;;7183018;19;2004665;-76
2023/03/26 06:29:35;;;;;;;8.03;1.40;;;9.20;99.90;;;;;;7181867;19;2004591;-76
2023/03/26 06:32:09;;;;;;;6.43;1.40;;;9.30;99.90;;;;;;7285868;19;20178;-75
2023/03/26 06:34:43;;;;;;;13.20;1.83;;;9.20;99.90;;;;;;7284302;19;20188;-75
2023/03/26 06:37:08;;;;;;;13.40;1.50;;;9.10;99.90;;;;;;7284531;19;20593;-75
2023/03/26 06:39:34;;;;;;;8.67;2.80;;;9.10;99.90;;;;;;7284229;19;20194;-76
2023/03/26 06:42:26;;;;;;;8.10;1.93;;;8.90;99.90;;;;;;7180355;19;2004663;-75
2023/03/26 06:45:01;;;;;;;7.13;1.23;;;8.90;99.90;;;;;;7284242;19;20225;-76
2023/03/26 06:47:33;;;;;;;9.43;2.17;;;8.90;99.90;;;;;;7285599;19;20689;-75
2023/03/26 06:50:18;;;;;;;12.13;1.93;;;8.80;99.90;;;;;;7285499;19;20196;-76
2023/03/26 06:52:54;;;;;;;10.30;1.27;;;8.90;99.90;;;;;;7267545;19;20199;-75
2023/03/26 06:55:38;;;;;;;13.67;3.23;;;8.80;99.90;;;;;;7283574;19;20227;-75
2023/03/26 06:58:30;;;;;;;7.97;1.30;;;8.70;99.90;;;;;;7182501;19;2004955;-75
2023/03/26 07:01:14;;;;;;;10.43;2.13;;;8.70;99.90;;;;;;7284077;19;20196;-75
2023/03/26 07:04:05;;;;;;;5.60;1.10;;;8.60;99.90;;;;;;7181708;19;2004683;-76
2023/03/26 07:06:49;;;;;;;7.37;2.00;;;8.50;99.90;;;;;;7282910;19;20214;-76
2023/03/26 07:09:33;;;;;;;6.73;1.40;;;8.40;99.90;;;;;;7181674;19;2004602;-75
2023/03/26 07:12:37;;;;;;;5.93;1.40;;;8.40;99.90;;;;;;7181127;19;2004810;-76
2023/03/26 07:15:19;;;;;;;9.27;1.40;;;8.50;99.90;;;;;;7282783;19;20203;-76
2023/03/26 07:18:06;;;;;;;7.60;1.30;;;8.50;99.90;;;;;;7180746;19;2004540;-76
2023/03/26 07:20:34;;;;;;;7.50;1.67;;;8.50;99.90;;;;;;7282417;19;20272;-76
2023/03/26 07:23:00;;;;;;;7.20;1.30;;;8.50;99.90;;;;;;7283246;19;20194;-75
2023/03/26 07:25:51;;;;;;;9.17;1.60;;;8.50;99.90;;;;;;7281978;19;20559;-76
2023/03/26 07:29:00;;;;;;;9.80;1.23;;;8.50;99.90;;;;;;7181401;19;2004843;-75
2023/03/26 07:32:02;;;;;;;5.53;1.00;;;8.50;99.90;;;;;;7180613;19;2004389;-74
2023/03/26 07:34:55;;;;;;;8.40;1.00;;;8.60;99.90;;;;;;7181335;19;2004618;-75
2023/03/26 07:38:21;;;;;;;5.80;1.10;;;8.70;99.90;;;;;;7180083;19;2004570;-75
2023/03/26 07:41:25;;;;;;;6.17;1.20;;;8.60;99.90;;;;;;7077462;19;2005007;-74
2023/03/26 07:44:32;;;;;;;6.70;1.30;;;8.50;99.90;;;;;;7177727;19;2004710;-75
2023/03/26 07:47:31;;;;;;;5.43;1.10;;;8.70;99.90;;;;;;7180955;19;2004592;-76
2023/03/26 07:50:17;;;;;;;6.80;1.30;;;8.80;99.90;;;;;;7186982;19;2004616;-75
2023/03/26 07:52:57;;;;;;;6.70;1.37;;;8.80;99.90;;;;;;7186861;19;2004594;-74
2023/03/26 07:55:31;;;;;;;6.47;1.13;;;8.90;99.90;;;;;;7289009;19;20180;-74
2023/03/26 07:58:40;;;;;;;8.03;1.00;;;9.00;99.90;;;;;;7288792;19;20189;-75
2023/03/26 08:01:35;;;;;;;7.67;1.30;;;9.00;99.90;;;;;;7187621;19;2004795;-76
2023/03/26 08:04:15;;;;;;;4.70;1.03;;;9.00;99.90;;;;;;7186041;19;2004570;-75
2023/03/26 08:07:33;;;;;;;6.17;1.13;;;9.00;99.90;;;;;;7186345;19;2004572;-74
2023/03/26 08:10:30;;;;;;;6.67;1.00;;;9.00;99.90;;;;;;7184143;19;2004378;-75
2023/03/26 08:13:02;;;;;;;6.20;1.00;;;9.00;99.90;;;;;;7182520;19;2004604;-74
2023/03/26 08:15:37;;;;;;;9.27;1.30;;;9.10;99.90;;;;;;7286057;19;20600;-74
2023/03/26 08:18:31;;;;;;;6.53;1.37;;;9.00;99.90;;;;;;7288072;19;20219;-75
2023/03/26 08:21:09;;;;;;;7.57;1.30;;;9.10;99.90;;;;;;7184422;19;2004572;-74
2023/03/26 08:23:56;;;;;;;6.80;1.07;;;9.00;99.90;;;;;;7290079;19;20206;-75
2023/03/26 08:26:30;;;;;;;5.50;0.97;;;9.00;99.90;;;;;;7280985;19;20177;-74
2023/03/26 08:29:14;;;;;;;5.73;0.97;;;8.90;99.90;;;;;;7287906;19;20704;-76
2023/03/26 08:31:42;;;;;;;5.90;1.27;;;9.00;99.90;;;;;;7287976;19;20188;-75
2023/03/26 08:34:12;;;;;;;5.43;1.17;;;9.20;99.90;;;;;;7287355;19;20197;-74
2023/03/26 08:36:38;;;;;;;3.50;1.10;;;9.30;99.90;;;;;;7286276;19;20197;-75
2023/03/26 08:39:05;;;;;;;4.73;1.20;;;9.40;99.90;;;;;;7288552;19;20202;-74
2023/03/26 08:41:49;;;;;;;5.83;1.20;;;9.40;99.90;;;;;;7286475;19;20203;-74
2023/03/26 08:44:15;;;;;;;4.13;1.17;;;9.60;99.90;;;;;;7288128;19;20282;-74
2023/03/26 08:46:44;;;;;;;4.47;0.97;;;9.60;99.90;;;;;;7286360;19;20174;-74
2023/03/26 08:49:25;;;;;;;2.80;1.07;;;9.60;99.90;;;;;;7287877;19;20254;-74
2023/03/26 08:52:02;;;;;;;4.63;0.93;;;9.70;99.90;;;;;;7287349;19;20177;-75
2023/03/26 08:54:49;;;;;;;2.93;0.97;;;9.60;99.90;;;;;;7184153;19;2004540;-74
2023/03/26 08:57:37;;;;;;;7.43;1.13;;;9.60;99.90;;;;;;7283995;19;20195;-76
2023/03/26 09:00:36;;;;;;;5.30;1.10;;;9.70;99.90;;;;;;7183619;19;2005096;-75
2023/03/26 09:03:16;;;;;;;5.40;0.93;;;9.80;99.90;;;;;;7182947;19;2006238;-77
2023/03/26 09:06:15;;;;;;;4.53;1.00;;;9.90;99.90;;;;;;7287094;19;20199;-77
2023/03/26 09:08:57;;;;;;;6.40;1.23;;;9.90;99.90;;;;;;7182759;19;2006878;-77
2023/03/26 09:11:26;;;;;;;7.30;1.30;;;9.90;99.90;;;;;;7266192;19;20189;-77
2023/03/26 09:14:07;;;;;;;5.13;1.03;;;9.80;99.90;;;;;;7303513;19;20194;-75
2023/03/26 09:17:07;;;;;;;3.83;1.00;;;9.80;99.90;;;;;;7287879;19;20218;-77
2023/03/26 09:19:51;;;;;;;7.37;1.50;;;9.70;99.90;;;;;;7184080;19;2005094;-77
2023/03/26 09:22:36;;;;;;;3.60;1.13;;;9.70;99.90;;;;;;7285013;19;20231;-77
2023/03/26 09:25:40;;;;;;;4.57;1.10;;;9.60;99.90;;;;;;7184406;19;2004414;-76
2023/03/26 09:28:43;;;;;;;8.23;1.70;;;9.40;99.90;;;;;;7184163;19;2005078;-78
2023/03/26 09:31:27;;;;;;;4.83;1.20;;;9.60;99.90;;;;;;7184018;19;2004741;-77
2023/03/26 09:34:01;;;;;;;7.50;1.40;;;9.70;99.90;;;;;;7271864;19;20190;-77
2023/03/26 09:36:56;;;;;;;4.90;1.37;;;9.80;99.90;;;;;;7288349;19;20654;-77
2023/03/26 09:40:14;;;;;;;5.90;1.20;;;9.60;99.90;;;;;;7285899;19;20662;-78
2023/03/26 09:43:10;;;;;;;7.20;1.37;;;9.50;99.90;;;;;;7183709;19;2004350;-77
2023/03/26 09:46:03;;;;;;;6.17;1.40;;;9.50;99.90;;;;;;7185066;19;2004654;-77
2023/03/26 09:48:58;;;;;;;4.50;1.10;;;9.60;99.90;;;;;;7184359;19;2004818;-77
2023/03/26 09:51:55;;;;;;;4.07;1.10;;;9.80;99.90;;;;;;7264369;19;20195;-76
2023/03/26 09:54:43;;;;;;;3.83;1.20;;;9.80;99.90;;;;;;7285874;19;20200;-75
2023/03/26 09:57:23;;;;;;;4.00;1.03;;;9.80;99.90;;;;;;7182310;19;2004579;-75
2023/03/26 10:00:20;;;;;;;5.50;1.40;;;9.70;99.90;;;;;;7284732;19;20639;-75
2023/03/26 10:02:57;;;;;;;4.63;1.10;;;9.70;99.90;;;;;;7183867;19;2004345;-76
2023/03/26 10:05:50;;;;;;;5.43;1.37;;;9.60;99.90;;;;;;7269305;19;20279;-76
2023/03/26 10:08:46;;;;;;;4.80;1.20;;;9.80;99.90;;;;;;7283614;19;20183;-75
2023/03/26 10:11:32;;;;;;;4.47;1.17;;;9.90;99.90;;;;;;7179699;19;2004809;-75
2023/03/26 10:14:12;;;;;;;6.30;1.40;;;9.80;99.90;;;;;;7183133;19;2004796;-75
2023/03/26 10:17:21;;;;;;;4.63;1.40;;;9.90;99.90;;;;;;7285336;19;20606;-76
2023/03/26 10:20:23;;;;;;;5.77;1.50;;;10.10;99.90;;;;;;7182372;19;2004397;-75
2023/03/26 10:23:07;;;;;;;6.37;1.50;;;10.20;99.90;;;;;;7182838;19;2004698;-76
2023/03/26 10:25:52;;;;;;;5.60;1.47;;;10.20;99.90;;;;;;7182085;19;2004636;-76
2023/03/26 10:28:25;;;;;;;3.80;1.20;;;10.20;99.90;;;;;;7280888;19;20199;-76
2023/03/26 10:31:06;;;;;;;7.50;2.00;;;10.10;99.90;;;;;;7282087;19;20649;-75
2023/03/26 10:34:00;;;;;;;4.80;1.23;;;9.90;99.90;;;;;;7181650;19;2004925;-76
2023/03/26 10:36:37;;;;;;;3.20;1.10;;;9.70;99.90;;;;;;7261805;19;20293;-75
2023/03/26 10:39:32;;;;;;;6.97;1.50;;;9.70;99.90;;;;;;7283830;19;20190;-76
2023/03/26 10:42:32;;;;;;;5.17;1.53;;;9.70;99.90;;;;;;7177727;19;2004761;-76
2023/03/26 10:45:27;;;;;;;5.97;1.73;;;9.90;99.90;;;;;;7181278;19;2004945;-77
2023/03/26 10:48:26;;;;;;;6.30;2.10;;;10.00;99.90;;;;;;7271500;19;20649;-75
2023/03/26 10:51:11;;;;;;;6.37;2.07;;;9.90;99.90;;;;;;7280041;19;20183;-76
2023/03/26 10:53:37;;;;;;;5.43;2.07;;;9.90;99.90;;;;;;7282826;19;20605;-76
2023/03/26 10:56:28;;;;;;;4.30;1.83;;;9.90;99.90;;;;;;7283415;19;20207;-75
2023/03/26 10:58:55;;;;;;;8.30;2.33;;;9.80;99.90;;;;;;7261912;19;20183;-76
2023/03/26 11:01:48;;;;;;;3.43;1.70;;;9.80;99.90;;;;;;7303702;19;20662;-75
2023/03/26 11:04:45;;;;;;;5.77;1.60;;;9.90;99.90;;;;;;7181231;19;2004435;-76
2023/03/26 11:07:31;;;;;;;5.90;1.57;;;9.90;99.90;;;;;;7180924;19;2004624;-76
2023/03/26 11:10:23;;;;;;;6.23;1.50;;;9.90;99.90;;;;;;7180864;19;2004616;-75
2023/03/26 11:12:58;;;;;;;4.80;1.50;;;9.90;99.90;;;;;;7284165;19;20553;-75
2023/03/26 11:15:38;;;;;;;4.83;1.50;;;9.80;99.90;;;;;;7261185;19;20230;-76
2023/03/26 11:18:22;;;;;;;5.47;1.97;;;9.70;99.90;;;;;;7283182;19;20203;-76
2023/03/26 11:21:17;;;;;;;5.87;2.00;;;9.80;99.90;;;;;;7282311;19;20187;-75
2023/03/26 11:24:02;;;;;;;8.30;2.33;;;9.90;99.90;;;;;;7179020;19;2005110;-75
2023/03/26 11:27:06;;;;;;;8.07;2.50;;;9.90;99.90;;;;;;7180285;19;2004602;-76
2023/03/26 11:29:41;;;;;;;8.23;2.23;;;9.90;99.90;;;;;;7180489;19;2004835;-75
2023/03/26 11:32:12;;;;;;;7.20;2.53;;;9.80;99.90;;;;;;7282467;19;20190;-76
2023/03/26 11:34:45;;;;;;;5.37;2.60;;;9.80;99.90;;;;;;7282208;19;20257;-76
2023/03/26 11:37:18;;;;;;;7.33;2.73;;;9.80;99.90;;;;;;7284037;19;20191;-76
2023/03/26 11:39:57;;;;;;;8.00;2.20;;;9.80;99.90;;;;;;7283956;19;20199;-76
2023/03/26 11:42:24;;;;;;;3.97;2.00;;;9.90;99.90;;;;;;7269643;19;20207;-75
2023/03/26 11:45:06;;;;;;;3.77;1.70;;;9.70;99.90;;;;;;7303508;19;20190;-75
2023/03/26 11:48:09;;;;;;;5.20;1.70;;;9.50;99.90;;;;;;7178440;19;2004563;-76
2023/03/26 11:50:43;;;;;;;5.40;1.87;;;9.50;99.90;;;;;;7178592;19;2004877;-75
2023/03/26 11:53:13;;;;;;;5.00;1.90;;;9.50;99.90;;;;;;7281037;19;20191;-76
2023/03/26 11:56:04;;;;;;;6.13;2.00;;;9.60;99.90;;;;;;7282721;19;20194;-76
2023/03/26 11:58:38;;;;;;;5.00;2.03;;;9.70;99.90;;;;;;7178683;19;2004436;-76
2023/03/26 12:01:30;;;;;;;7.80;2.60;;;9.60;99.90;;;;;;7281684;19;20186;-76
2023/03/26 12:04:42;;;;;;;5.70;2.10;;;9.80;99.90;;;;;;7258440;19;20185;-76
2023/03/26 12:07:30;;;;;;;6.53;2.40;;;9.90;99.90;;;;;;7178163;19;2004625;-76
2023/03/26 12:10:05;;;;;;;5.57;2.07;;;9.90;99.90;;;;;;7257399;19;20688;-76
2023/03/26 12:12:36;;;;;;;5.13;1.97;;;9.80;99.90;;;;;;7282703;19;20198;-76
2023/03/26 12:15:03;;;;;;;3.40;1.80;;;9.90;99.90;;;;;;7280604;19;20252;-74
2023/03/26 12:17:38;;;;;;;5.23;2.20;;;10.00;99.90;;;;;;7281030;19;20291;-73
2023/03/26 12:20:24;;;;;;;6.47;2.10;;;10.00;99.90;;;;;;7280194;19;20193;-74
2023/03/26 12:22:57;;;;;;;4.57;2.00;;;9.90;99.90;;;;;;7281371;19;20188;-75
2023/03/26 12:25:28;;;;;;;4.90;1.63;;;10.00;99.90;;;;;;7267502;19;20251;-75
2023/03/26 12:28:01;;;;;;;6.10;1.90;;;10.10;99.90;;;;;;7279451;19;20223;-75
2023/03/26 12:30:38;;;;;;;5.27;1.73;;;10.30;99.90;;;;;;7281700;19;20191;-75
2023/03/26 12:33:24;;;;;;;7.00;1.93;;;10.40;99.90;;;;;;7278631;19;20196;-74
2023/03/26 12:35:51;;;;;;;4.80;1.93;;;10.70;99.90;;;;;;7287266;19;20565;-75
2023/03/26 12:38:34;;;;;;;6.00;1.97;;;10.90;99.90;;;;;;7287011;19;20279;-75
2023/03/26 12:41:08;;;;;;;4.53;1.33;;;11.20;99.90;;;;;;7184673;19;2005254;-75
2023/03/26 12:43:48;;;;;;;3.60;1.47;;;11.20;99.90;;;;;;7287264;19;20204;-75
2023/03/26 12:46:34;;;;;;;5.37;1.67;;;11.10;99.90;;;;;;7287543;19;20222;-75
2023/03/26 12:49:04;;;;;;;4.70;1.47;;;11.20;99.90;;;;;;7184450;19;2004568;-75
2023/03/26 12:51:47;;;;;;;4.37;1.70;;;11.00;99.90;;;;;;7287805;19;20205;-75
2023/03/26 12:54:32;;;;;;;2.33;1.40;;;10.90;99.90;;;;;;7286314;19;20185;-75
2023/03/26 12:57:09;;;;;;;4.67;1.90;;;10.60;99.90;;;;;;7184303;19;2004426;-75
2023/03/26 13:00:13;;;;;;;4.77;1.90;;;10.60;99.90;;;;;;7287515;19;20212;-75
2023/03/26 13:02:53;;;;;;;5.27;1.80;;;10.50;99.90;;;;;;7184166;19;2005039;-75
2023/03/26 13:05:38;;;;;;;4.80;1.60;;;10.40;99.90;;;;;;7287194;19;20191;-75
2023/03/26 13:08:38;;;;;;;5.73;1.80;;;10.30;99.90;;;;;;7183973;19;2005010;-75
2023/03/26 13:11:28;;;;;;;3.90;1.73;;;10.30;99.90;;;;;;7183601;19;2005061;-76
2023/03/26 13:14:02;;;;;;;6.07;2.00;;;10.30;99.90;;;;;;7262814;19;20188;-76
2023/03/26 13:17:02;;;;;;;9.50;3.00;;;10.20;99.90;;;;;;7286686;19;20585;-75
2023/03/26 13:20:05;;;;;;;3.80;2.10;;;10.30;99.90;;;;;;7184197;19;2004583;-75
2023/03/26 13:22:40;;;;;;;5.63;2.07;;;10.40;99.90;;;;;;7183735;19;2004578;-75
2023/03/26 13:25:25;;;;;;;4.83;1.70;;;10.50;99.90;;;;;;7284358;19;20218;-74
2023/03/26 13:28:27;;;;;;;3.97;1.60;;;10.40;99.90;;;;;;7285872;19;20283;-75
2023/03/26 13:31:15;;;;;;;4.90;2.13;;;10.50;99.90;;;;;;7170493;19;2004717;-76
2023/03/26 13:34:00;;;;;;;6.13;1.60;;;10.80;99.90;;;;;;7285742;19;20197;-74
2023/03/26 13:37:12;;;;;;;3.43;1.20;;;11.00;99.90;;;;;;7253298;19;20552;-74
2023/03/26 13:39:58;;;;;;;4.30;1.50;;;11.10;99.90;;;;;;7181180;19;2004548;-75
2023/03/26 13:42:56;;;;;;;3.40;1.30;;;11.20;99.90;;;;;;7262270;19;20279;-75